createdAt,value
2023-01-17T00:01:33.983Z,8.90
2023-01-17T00:04:21.069Z,8.80
2023-01-17T00:07:06.656Z,8.93
2023-01-17T00:09:52.066Z,9.70
2023-01-17T00:12:20.313Z,11.20
2023-01-17T00:14:48.531Z,10.90
2023-01-17T00:17:16.858Z,10.30
2023-01-17T00:20:03.602Z,11.43
2023-01-17T00:22:50.197Z,11.60
2023-01-17T00:25:37.440Z,12.00
2023-01-17T00:28:05.751Z,12.80
2023-01-17T00:30:32.679Z,11.43
2023-01-17T00:32:59.533Z,12.37
2023-01-17T00:35:30.023Z,11.70
2023-01-17T00:38:04.497Z,10.60
2023-01-17T00:40:32.076Z,11.23
2023-01-17T00:43:17.783Z,10.90
2023-01-17T00:46:03.838Z,11.90
2023-01-17T00:48:50.411Z,11.77
2023-01-17T00:51:37.755Z,11.27
2023-01-17T00:54:23.611Z,11.57
2023-01-17T00:57:09.104Z,10.43
2023-01-17T00:59:54.756Z,9.70
2023-01-17T01:02:40.730Z,10.30
2023-01-17T01:05:26.779Z,11.07
2023-01-17T01:08:13.377Z,10.13
2023-01-17T01:10:58.719Z,10.30
2023-01-17T01:13:45.777Z,7.90
2023-01-17T01:16:32.064Z,8.60
2023-01-17T01:19:18.139Z,7.77
2023-01-17T01:22:03.536Z,5.43
2023-01-17T01:24:50.396Z,7.00
2023-01-17T01:27:35.637Z,6.20
2023-01-17T01:30:21.586Z,4.67
2023-01-17T01:33:07.153Z,3.77
2023-01-17T01:35:36.931Z,3.30
2023-01-17T01:38:05.570Z,3.10
2023-01-17T01:40:34.825Z,3.00
2023-01-17T01:43:05.699Z,4.90
2023-01-17T01:45:34.107Z,4.77
2023-01-17T01:48:05.295Z,4.43
2023-01-17T01:50:36.012Z,5.40
2023-01-17T01:53:05.394Z,6.10
2023-01-17T01:55:37.599Z,5.70
2023-01-17T01:58:12.067Z,5.90
2023-01-17T02:00:41.523Z,4.73
2023-01-17T02:03:12.735Z,11.87
2023-01-17T02:05:42.437Z,5.10
2023-01-17T02:08:13.788Z,5.80
2023-01-17T02:10:43.957Z,3.90
2023-01-17T02:13:15.843Z,4.20
2023-01-17T02:16:02.142Z,4.33
2023-01-17T02:18:43.176Z,3.13
2023-01-17T02:21:22.126Z,3.30
2023-01-17T02:24:25.372Z,3.97
2023-01-17T02:27:03.745Z,2.53
2023-01-17T02:30:12.876Z,2.40
2023-01-17T02:33:04.411Z,2.73
2023-01-17T02:35:40.100Z,2.40
2023-01-17T02:38:18.082Z,1.90
2023-01-17T02:40:49.556Z,2.03
2023-01-17T02:43:19.670Z,1.67
2023-01-17T02:45:47.712Z,1.80
2023-01-17T02:48:23.661Z,2.00
2023-01-17T02:51:05.143Z,3.73
2023-01-17T02:53:44.588Z,3.60
2023-01-17T02:56:25.537Z,3.70
2023-01-17T02:59:07.955Z,4.33
2023-01-17T03:01:45.770Z,3.10
2023-01-17T03:04:19.404Z,3.70
2023-01-17T03:06:51.797Z,3.40
2023-01-17T03:09:21.231Z,3.37
2023-01-17T03:11:49.257Z,3.17
2023-01-17T03:14:17.145Z,3.20
2023-01-17T03:16:45.507Z,4.00
2023-01-17T03:19:16.105Z,3.30
2023-01-17T03:21:44.168Z,3.47
2023-01-17T03:24:12.075Z,3.90
2023-01-17T03:26:39.998Z,3.23
2023-01-17T03:29:07.880Z,3.27
2023-01-17T03:31:35.821Z,3.53
2023-01-17T03:34:03.721Z,3.57
2023-01-17T03:36:33.011Z,4.30
2023-01-17T03:39:02.914Z,10.20
2023-01-17T03:41:31.131Z,4.20
2023-01-17T03:43:59.035Z,4.53
2023-01-17T03:46:28.614Z,3.93
2023-01-17T03:48:56.944Z,4.93
2023-01-17T03:51:24.881Z,3.40
2023-01-17T03:53:54.267Z,3.37
2023-01-17T03:56:22.333Z,2.77
2023-01-17T03:58:51.424Z,2.47
2023-01-17T04:01:19.867Z,2.43
2023-01-17T04:03:47.865Z,3.03
2023-01-17T04:06:15.778Z,2.07
2023-01-17T04:08:43.733Z,1.90
2023-01-17T04:11:12.978Z,1.90
2023-01-17T04:13:40.964Z,2.10
2023-01-17T04:16:13.407Z,3.07
2023-01-17T04:18:41.430Z,3.03
2023-01-17T04:21:09.346Z,4.20
2023-01-17T04:23:37.328Z,3.23
2023-01-17T04:26:05.439Z,3.73
2023-01-17T04:28:34.706Z,3.50
2023-01-17T04:31:02.677Z,4.10
2023-01-17T04:33:30.699Z,5.77
2023-01-17T04:35:58.625Z,4.90
2023-01-17T04:38:26.920Z,4.83
2023-01-17T04:40:54.858Z,4.20
2023-01-17T04:43:22.781Z,4.60
2023-01-17T04:45:57.169Z,4.33
2023-01-17T04:48:26.089Z,4.10
2023-01-17T04:51:00.423Z,4.10
2023-01-17T04:53:29.007Z,3.90
2023-01-17T04:55:57.207Z,4.67
2023-01-17T04:58:25.251Z,4.03
2023-01-17T05:00:53.223Z,4.07
2023-01-17T05:03:25.050Z,4.30
2023-01-17T05:05:52.965Z,2.93
2023-01-17T05:08:21.014Z,2.73
2023-01-17T05:10:49.011Z,2.70
2023-01-17T05:13:17.497Z,3.43
2023-01-17T05:15:46.116Z,2.57
2023-01-17T05:18:15.276Z,2.13
2023-01-17T05:20:44.993Z,1.87
2023-01-17T05:23:13.127Z,2.10
2023-01-17T05:25:44.842Z,2.00
2023-01-17T05:28:13.763Z,1.60
2023-01-17T05:30:41.778Z,1.67
2023-01-17T05:33:10.481Z,1.80
2023-01-17T05:35:38.481Z,1.83
2023-01-17T05:38:07.987Z,2.10
2023-01-17T05:40:36.188Z,1.67
2023-01-17T05:43:04.840Z,1.43
2023-01-17T05:45:34.713Z,1.60
2023-01-17T05:48:03.368Z,1.30
2023-01-17T05:50:33.825Z,1.30
2023-01-17T05:53:03.571Z,2.17
2023-01-17T05:55:33.831Z,1.33
2023-01-17T05:58:03.034Z,1.70
2023-01-17T06:00:32.161Z,1.40
2023-01-17T06:03:01.302Z,2.07
2023-01-17T06:05:30.242Z,3.77
2023-01-17T06:07:58.262Z,2.37
2023-01-17T06:10:27.138Z,2.57
2023-01-17T06:13:04.888Z,2.40
2023-01-17T06:15:32.899Z,1.50
2023-01-17T06:18:05.674Z,1.60
2023-01-17T06:20:34.276Z,1.50
2023-01-17T06:23:04.142Z,1.47
2023-01-17T06:25:36.338Z,1.27
2023-01-17T06:28:06.326Z,1.60
2023-01-17T06:30:34.748Z,1.93
2023-01-17T06:33:02.723Z,1.40
2023-01-17T06:35:30.796Z,1.40
2023-01-17T06:38:00.351Z,1.50
2023-01-17T06:40:29.559Z,1.83
2023-01-17T06:43:01.742Z,2.10
2023-01-17T06:45:32.526Z,1.53
2023-01-17T06:48:01.640Z,1.60
2023-01-17T06:50:29.741Z,1.40
2023-01-17T06:52:59.597Z,1.73
2023-01-17T06:55:28.774Z,2.37
2023-01-17T06:57:57.246Z,3.07
2023-01-17T07:00:25.629Z,2.30
2023-01-17T07:02:55.011Z,2.20
2023-01-17T07:05:23.291Z,2.73
2023-01-17T07:07:51.505Z,1.70
2023-01-17T07:10:19.606Z,1.40
2023-01-17T07:12:47.917Z,1.40
2023-01-17T07:15:16.050Z,1.63
2023-01-17T07:17:43.993Z,1.50
2023-01-17T07:20:14.093Z,1.40
2023-01-17T07:22:46.323Z,1.50
2023-01-17T07:25:14.353Z,1.40
2023-01-17T07:27:42.311Z,1.70
2023-01-17T07:30:11.918Z,1.63
2023-01-17T07:32:40.012Z,2.33
2023-01-17T07:35:08.758Z,2.60
2023-01-17T07:37:39.027Z,1.80
2023-01-17T07:40:08.034Z,1.77
2023-01-17T07:42:36.161Z,1.77
2023-01-17T07:45:04.222Z,3.53
2023-01-17T07:47:33.889Z,6.80
2023-01-17T07:50:02.737Z,4.60
2023-01-17T07:52:30.683Z,2.30
2023-01-17T07:55:00.083Z,2.20
2023-01-17T07:57:28.167Z,2.57
2023-01-17T07:59:56.087Z,2.20
2023-01-17T08:02:24.943Z,2.00
2023-01-17T08:04:52.946Z,1.50
2023-01-17T08:07:20.838Z,2.87
2023-01-17T08:09:50.126Z,2.90
2023-01-17T08:12:19.551Z,1.93
2023-01-17T08:14:47.475Z,3.33
2023-01-17T08:17:17.579Z,3.37
2023-01-17T08:19:46.012Z,3.20
2023-01-17T08:22:14.002Z,5.30
2023-01-17T08:24:42.083Z,3.70
2023-01-17T08:27:10.346Z,4.83
2023-01-17T08:29:42.058Z,3.47
2023-01-17T08:32:10.233Z,4.30
2023-01-17T08:34:38.144Z,4.27
2023-01-17T08:37:06.074Z,4.80
2023-01-17T08:39:33.994Z,3.97
2023-01-17T08:42:01.924Z,2.40
2023-01-17T08:44:29.838Z,2.27
2023-01-17T08:46:59.404Z,1.80
2023-01-17T08:49:30.444Z,1.90
2023-01-17T08:51:58.391Z,1.67
2023-01-17T08:54:26.303Z,1.90
2023-01-17T08:56:55.546Z,2.30
2023-01-17T08:59:23.509Z,2.40
2023-01-17T09:01:52.487Z,1.57
2023-01-17T09:04:22.009Z,1.47
2023-01-17T09:06:49.964Z,2.80
2023-01-17T09:09:18.339Z,1.90
2023-01-17T09:11:46.278Z,1.50
2023-01-17T09:14:14.427Z,1.90
2023-01-17T09:16:42.406Z,2.30
2023-01-17T09:19:11.689Z,2.20
2023-01-17T09:21:41.001Z,3.20
2023-01-17T09:24:09.112Z,2.50
2023-01-17T09:26:37.118Z,3.40
2023-01-17T09:29:05.155Z,2.20
2023-01-17T09:31:33.148Z,1.40
2023-01-17T09:34:01.314Z,1.50
2023-01-17T09:36:31.877Z,1.40
2023-01-17T09:39:01.717Z,2.03
2023-01-17T09:41:31.859Z,2.13
2023-01-17T09:44:05.197Z,1.67
2023-01-17T09:46:38.482Z,1.40
2023-01-17T09:49:10.502Z,1.70
2023-01-17T09:51:38.597Z,1.57
2023-01-17T09:54:22.733Z,1.53
2023-01-17T09:57:01.387Z,1.60
2023-01-17T09:59:37.057Z,1.77
2023-01-17T10:02:19.637Z,1.87
2023-01-17T10:05:10.456Z,1.60
2023-01-17T10:07:46.349Z,1.30
2023-01-17T10:10:27.527Z,1.80
2023-01-17T10:12:59.161Z,1.50
2023-01-17T10:15:37.564Z,1.87
2023-01-17T10:18:30.079Z,1.83
2023-01-17T10:21:05.495Z,1.73
2023-01-17T10:24:03.529Z,1.70
2023-01-17T10:26:34.990Z,4.90
2023-01-17T10:29:09.588Z,1.97
2023-01-17T10:31:44.433Z,1.53
2023-01-17T10:34:17.988Z,1.63
2023-01-17T10:36:50.574Z,1.40
2023-01-17T10:39:24.001Z,1.20
2023-01-17T10:41:58.026Z,1.37
2023-01-17T10:44:31.776Z,1.43
2023-01-17T10:47:06.821Z,1.37
2023-01-17T10:49:34.924Z,1.60
2023-01-17T10:52:14.006Z,1.37
2023-01-17T10:55:03.803Z,1.27
2023-01-17T10:57:39.534Z,1.30
2023-01-17T11:00:29.543Z,1.40
2023-01-17T11:02:57.921Z,1.57
2023-01-17T11:05:29.524Z,1.50
2023-01-17T11:08:02.366Z,1.13
2023-01-17T11:10:43.424Z,0.90
2023-01-17T11:13:31.755Z,1.10
2023-01-17T11:16:02.522Z,1.03
2023-01-17T11:18:33.283Z,1.43
2023-01-17T11:21:11.970Z,1.10
2023-01-17T11:23:42.476Z,1.07
2023-01-17T11:26:13.623Z,3.03
2023-01-17T11:28:43.166Z,1.50
2023-01-17T11:31:26.404Z,1.00
2023-01-17T11:34:09.569Z,1.30
2023-01-17T11:36:37.968Z,1.10
2023-01-17T11:39:10.715Z,1.20
2023-01-17T11:41:40.542Z,1.07
2023-01-17T11:44:25.694Z,1.40
2023-01-17T11:47:19.117Z,1.40
2023-01-17T11:49:48.858Z,1.17
2023-01-17T11:52:24.243Z,1.10
2023-01-17T11:54:54.610Z,1.00
2023-01-17T11:57:26.725Z,0.90
2023-01-17T12:00:04.702Z,1.47
2023-01-17T12:02:51.023Z,1.50
2023-01-17T12:05:29.345Z,1.23
2023-01-17T12:08:07.156Z,1.13
2023-01-17T12:10:44.242Z,1.27
2023-01-17T12:13:38.661Z,1.20
2023-01-17T12:16:30.955Z,0.97
2023-01-17T12:19:16.003Z,2.40
2023-01-17T12:21:57.028Z,1.20
2023-01-17T12:24:56.618Z,7.97
2023-01-17T12:27:31.047Z,1.37
2023-01-17T12:30:10.344Z,2.60
2023-01-17T12:33:08.070Z,2.27
2023-01-17T12:35:40.551Z,1.63
2023-01-17T12:38:20.815Z,1.87
2023-01-17T12:41:05.879Z,3.60
2023-01-17T12:43:37.281Z,2.30
2023-01-17T12:46:12.301Z,1.83
2023-01-17T12:48:42.113Z,2.43
2023-01-17T12:51:16.632Z,1.57
2023-01-17T12:53:51.134Z,2.03
2023-01-17T12:56:25.472Z,1.73
2023-01-17T12:58:56.881Z,1.50
2023-01-17T13:01:30.816Z,1.90
2023-01-17T13:04:14.556Z,1.60
2023-01-17T13:06:52.557Z,1.50
2023-01-17T13:09:24.350Z,1.10
2023-01-17T13:11:56.621Z,1.87
2023-01-17T13:14:24.920Z,1.70
2023-01-17T13:16:58.831Z,1.40
2023-01-17T13:19:40.382Z,2.03
2023-01-17T13:22:17.256Z,1.90
2023-01-17T13:24:51.657Z,1.63
2023-01-17T13:27:39.076Z,3.43
2023-01-17T13:30:34.800Z,1.50
2023-01-17T13:33:45.897Z,1.70
2023-01-17T13:36:35.167Z,2.80
2023-01-17T13:39:29.597Z,1.90
2023-01-17T13:42:11.400Z,3.57
2023-01-17T13:44:39.335Z,2.50
2023-01-17T13:47:28.268Z,2.40
2023-01-17T13:49:58.297Z,2.20
2023-01-17T13:52:34.241Z,2.97
2023-01-17T13:55:04.309Z,3.37
2023-01-17T13:57:43.705Z,1.87
2023-01-17T14:00:58.060Z,3.00
2023-01-17T14:04:04.139Z,2.40
2023-01-17T14:06:40.496Z,2.27
2023-01-17T14:09:23.219Z,1.60
2023-01-17T14:12:00.727Z,1.70
2023-01-17T14:14:51.982Z,1.40
2023-01-17T14:17:49.824Z,1.70
2023-01-17T14:20:51.141Z,1.50
2023-01-17T14:23:47.130Z,2.90
2023-01-17T14:26:32.000Z,2.17
2023-01-17T14:29:21.033Z,3.13
2023-01-17T14:31:49.271Z,2.10
2023-01-17T14:34:23.793Z,1.57
2023-01-17T14:36:51.715Z,2.97
2023-01-17T14:39:24.208Z,3.33
2023-01-17T14:41:53.258Z,2.47
2023-01-17T14:44:21.668Z,2.50
2023-01-17T14:46:50.428Z,2.40
2023-01-17T14:49:24.052Z,2.80
2023-01-17T14:52:02.332Z,2.63
2023-01-17T14:54:31.744Z,1.90
2023-01-17T14:57:27.843Z,2.03
2023-01-17T15:00:20.035Z,2.13
2023-01-17T15:02:50.638Z,2.00
2023-01-17T15:05:20.268Z,2.80
2023-01-17T15:07:52.908Z,2.33
2023-01-17T15:10:25.643Z,2.47
2023-01-17T15:12:53.995Z,2.00
2023-01-17T15:15:28.544Z,2.20
2023-01-17T15:18:10.543Z,2.90
2023-01-17T15:20:39.183Z,3.93
2023-01-17T15:23:09.444Z,4.27
2023-01-17T15:25:39.132Z,5.87
2023-01-17T15:28:10.542Z,3.13
2023-01-17T15:30:38.782Z,2.43
2023-01-17T15:33:06.755Z,2.97
2023-01-17T15:35:34.718Z,2.70
2023-01-17T15:38:03.465Z,2.00
2023-01-17T15:40:33.122Z,3.67
2023-01-17T15:43:02.536Z,2.67
2023-01-17T15:45:32.174Z,2.67
2023-01-17T15:48:44.869Z,3.27
2023-01-17T15:51:13.992Z,3.10
2023-01-17T15:53:43.926Z,3.30
2023-01-17T15:56:31.774Z,2.73
2023-01-17T15:59:28.349Z,3.80
2023-01-17T16:01:57.548Z,4.00
2023-01-17T16:04:33.347Z,6.00
2023-01-17T16:07:12.342Z,4.30
2023-01-17T16:09:45.388Z,4.23
2023-01-17T16:12:13.414Z,3.97
2023-01-17T16:15:02.522Z,3.43
2023-01-17T16:17:32.587Z,4.20
2023-01-17T16:20:00.983Z,3.93
2023-01-17T16:22:28.954Z,4.53
2023-01-17T16:24:57.605Z,3.23
2023-01-17T16:27:25.615Z,4.13
2023-01-17T16:29:56.503Z,3.60
2023-01-17T16:32:25.428Z,4.30
2023-01-17T16:34:53.335Z,4.70
2023-01-17T16:37:22.133Z,13.30
2023-01-17T16:39:50.079Z,20.03
2023-01-17T16:42:17.964Z,14.43
2023-01-17T16:44:45.836Z,7.33
2023-01-17T16:47:15.078Z,9.93
2023-01-17T16:49:43.128Z,8.33
2023-01-17T16:52:14.176Z,6.17
2023-01-17T16:54:42.374Z,6.40
2023-01-17T16:57:10.472Z,4.33
2023-01-17T16:59:50.151Z,6.73
2023-01-17T17:02:19.955Z,4.83
2023-01-17T17:04:47.920Z,7.23
2023-01-17T17:07:16.105Z,6.40
2023-01-17T17:09:44.140Z,5.50
2023-01-17T17:12:12.677Z,8.80
2023-01-17T17:14:40.979Z,7.53
2023-01-17T17:17:09.025Z,6.30
2023-01-17T17:19:38.468Z,6.23
2023-01-17T17:22:06.980Z,7.97
2023-01-17T17:24:34.934Z,5.30
2023-01-17T17:27:02.837Z,7.37
2023-01-17T17:29:30.761Z,8.90
2023-01-17T17:31:58.683Z,6.87
2023-01-17T17:34:28.145Z,6.97
2023-01-17T17:36:57.491Z,7.30
2023-01-17T17:39:25.465Z,7.33
2023-01-17T17:41:53.441Z,8.30
2023-01-17T17:44:21.356Z,7.43
2023-01-17T17:46:51.322Z,8.53
2023-01-17T17:49:20.315Z,8.73
2023-01-17T17:51:48.417Z,8.03
2023-01-17T17:54:18.562Z,8.03
2023-01-17T17:56:48.215Z,7.63
2023-01-17T17:59:18.384Z,8.73
2023-01-17T18:01:46.853Z,9.13
2023-01-17T18:04:14.990Z,8.77
2023-01-17T18:06:43.721Z,9.00
2023-01-17T18:09:13.488Z,7.40
2023-01-17T18:11:44.365Z,8.40
2023-01-17T18:14:15.280Z,7.73
2023-01-17T18:16:44.849Z,6.90
2023-01-17T18:19:15.663Z,7.57
2023-01-17T18:21:44.151Z,9.10
2023-01-17T18:24:14.179Z,7.13
2023-01-17T18:26:44.962Z,13.80
2023-01-17T18:29:15.762Z,12.63
2023-01-17T18:31:44.881Z,9.40
2023-01-17T18:34:15.326Z,9.70
2023-01-17T18:36:44.009Z,10.20
2023-01-17T18:39:13.915Z,14.13
2023-01-17T18:41:43.675Z,7.50
2023-01-17T18:44:13.812Z,9.37
2023-01-17T18:46:42.221Z,7.17
2023-01-17T18:49:12.687Z,8.80
2023-01-17T18:51:41.225Z,8.60
2023-01-17T18:54:09.374Z,17.60
2023-01-17T18:56:37.616Z,12.80
2023-01-17T18:59:08.911Z,14.63
2023-01-17T19:01:37.255Z,9.00
2023-01-17T19:04:06.634Z,9.63
2023-01-17T19:06:36.850Z,9.73
2023-01-17T19:09:06.340Z,10.37
2023-01-17T19:11:34.699Z,7.23
2023-01-17T19:14:02.749Z,10.30
2023-01-17T19:16:34.638Z,8.27
2023-01-17T19:19:05.466Z,8.37
2023-01-17T19:21:33.689Z,8.50
2023-01-17T19:24:01.643Z,7.80
2023-01-17T19:26:30.165Z,8.27
2023-01-17T19:28:59.990Z,7.70
2023-01-17T19:31:29.841Z,7.83
2023-01-17T19:34:01.021Z,9.50
2023-01-17T19:36:33.480Z,7.67
2023-01-17T19:39:06.257Z,9.27
2023-01-17T19:41:35.680Z,12.70
2023-01-17T19:44:05.693Z,14.47
2023-01-17T19:46:34.503Z,8.57
2023-01-17T19:49:06.804Z,17.33
2023-01-17T19:51:35.819Z,13.17
2023-01-17T19:54:06.377Z,11.77
2023-01-17T19:56:34.389Z,15.37
2023-01-17T19:59:02.514Z,9.73
2023-01-17T20:01:32.315Z,7.40
2023-01-17T20:04:02.150Z,11.17
2023-01-17T20:06:33.857Z,16.80
2023-01-17T20:09:01.864Z,9.83
2023-01-17T20:11:30.221Z,11.83
2023-01-17T20:13:59.925Z,10.03
2023-01-17T20:16:30.230Z,13.70
2023-01-17T20:18:58.983Z,12.13
2023-01-17T20:21:28.547Z,11.83
2023-01-17T20:23:59.551Z,12.60
2023-01-17T20:26:34.489Z,12.70
2023-01-17T20:29:03.266Z,12.87
2023-01-17T20:31:32.075Z,12.30
2023-01-17T20:33:59.997Z,13.37
2023-01-17T20:36:29.017Z,13.53
2023-01-17T20:38:58.288Z,13.83
2023-01-17T20:41:29.792Z,13.60
2023-01-17T20:44:00.161Z,12.43
2023-01-17T20:46:30.992Z,12.60
2023-01-17T20:49:01.182Z,12.77
2023-01-17T20:51:30.603Z,12.67
2023-01-17T20:54:02.651Z,12.93
2023-01-17T20:56:34.485Z,11.40
2023-01-17T20:59:03.595Z,12.53
2023-01-17T21:01:31.981Z,10.87
2023-01-17T21:03:59.953Z,10.67
2023-01-17T21:06:28.206Z,11.63
2023-01-17T21:08:56.368Z,10.47
2023-01-17T21:11:27.629Z,11.40
2023-01-17T21:13:57.362Z,10.67
2023-01-17T21:16:27.887Z,10.70
2023-01-17T21:18:56.209Z,9.67
2023-01-17T21:21:26.321Z,9.70
2023-01-17T21:23:55.807Z,10.20
2023-01-17T21:26:26.715Z,7.77
2023-01-17T21:28:55.045Z,10.90
2023-01-17T21:31:25.258Z,8.07
2023-01-17T21:33:54.861Z,8.80
2023-01-17T21:36:25.012Z,8.50
2023-01-17T21:38:54.700Z,8.07
2023-01-17T21:41:24.519Z,9.70
2023-01-17T21:43:56.711Z,8.53
2023-01-17T21:46:25.413Z,10.13
2023-01-17T21:48:53.421Z,8.20
2023-01-17T21:51:21.762Z,7.43
2023-01-17T21:53:49.799Z,7.37
2023-01-17T21:56:36.140Z,7.13
2023-01-17T21:59:05.411Z,7.17
2023-01-17T22:01:34.509Z,6.87
2023-01-17T22:04:04.612Z,5.53
2023-01-17T22:06:35.245Z,6.03
2023-01-17T22:09:04.272Z,6.90
2023-01-17T22:11:32.688Z,7.90
2023-01-17T22:14:02.514Z,7.03
2023-01-17T22:16:32.229Z,7.47
2023-01-17T22:19:00.380Z,6.70
2023-01-17T22:21:29.585Z,8.53
2023-01-17T22:23:59.384Z,8.33
2023-01-17T22:26:29.043Z,9.00
2023-01-17T22:28:57.275Z,8.00
2023-01-17T22:31:27.771Z,6.00
2023-01-17T22:33:58.902Z,6.70
2023-01-17T22:36:27.845Z,5.50
2023-01-17T22:38:55.893Z,6.60
2023-01-17T22:41:25.573Z,5.27
2023-01-17T22:43:57.629Z,5.27
2023-01-17T22:46:28.594Z,5.30
2023-01-17T22:48:58.659Z,5.90
2023-01-17T22:51:28.531Z,5.80
2023-01-17T22:53:58.639Z,5.40
2023-01-17T22:56:29.044Z,6.40
2023-01-17T22:58:58.736Z,6.17
2023-01-17T23:01:28.393Z,5.20
2023-01-17T23:03:59.772Z,4.37
2023-01-17T23:06:30.248Z,5.60
2023-01-17T23:08:59.887Z,4.87
2023-01-17T23:11:46.012Z,5.17
2023-01-17T23:14:17.117Z,4.83
2023-01-17T23:17:05.366Z,4.90
2023-01-17T23:19:37.024Z,4.80
2023-01-17T23:22:19.381Z,5.33
2023-01-17T23:24:52.554Z,5.30
2023-01-17T23:27:39.734Z,5.50
2023-01-17T23:30:10.673Z,4.30
2023-01-17T23:32:39.286Z,5.73
2023-01-17T23:35:09.051Z,6.00
2023-01-17T23:37:54.911Z,5.73
2023-01-17T23:40:23.216Z,7.60
2023-01-17T23:43:09.222Z,6.30
2023-01-17T23:45:38.033Z,6.67
2023-01-17T23:48:09.556Z,7.87
2023-01-17T23:50:39.776Z,6.53
2023-01-17T23:53:08.651Z,8.13
2023-01-17T23:55:37.887Z,6.77
2023-01-17T23:58:06.034Z,7.13
